<?xml version="1.0" encoding="UTF-8" standalone="no" ?>
<gpx xmlns="http://www.topografix.com/GPX/1/1" xmlns:xsi="http://www.w3.org/2001/XMLSchema-instance" xsi:schemaLocation="http://www.topografix.com/GPX/1/1 http://www.topografix.com/GPX/1/1/gpx.xsd" version="1.1" creator="VisuGPX - https://www.visugpx.com">
  <metadata>
    <name>boucle pres de la roque sur pernes </name>
    <desc><![CDATA[petite ballade facile aux alentours de la roque sur pernes ]]></desc>
  </metadata>
  <trk>
    <name><![CDATA[20181202215629-WdojA]]></name>
    <trkseg>
      <trkpt lat="43.9728" lon="5.09341">
        <ele>291.6</ele>
      </trkpt>
      <trkpt lat="43.97306" lon="5.09319">
        <ele>297.18</ele>
        <time>2018-12-01T13:32:04Z</time>
      </trkpt>
      <trkpt lat="43.97313" lon="5.09328">
        <ele>294.78</ele>
        <time>2018-12-01T13:32:15Z</time>
      </trkpt>
      <trkpt lat="43.97319" lon="5.09337">
        <ele>294.3</ele>
        <time>2018-12-01T13:32:27Z</time>
      </trkpt>
      <trkpt lat="43.97323" lon="5.09338">
        <ele>292.86</ele>
        <time>2018-12-01T13:32:33Z</time>
      </trkpt>
      <trkpt lat="43.97321" lon="5.09342">
        <ele>293.34</ele>
        <time>2018-12-01T13:32:41Z</time>
      </trkpt>
      <trkpt lat="43.97332" lon="5.09332">
        <ele>289.49</ele>
        <time>2018-12-01T13:32:52Z</time>
      </trkpt>
      <trkpt lat="43.97339" lon="5.09329">
        <ele>289.01</ele>
        <time>2018-12-01T13:33:01Z</time>
      </trkpt>
      <trkpt lat="43.9735" lon="5.09328">
        <ele>288.05</ele>
        <time>2018-12-01T13:33:16Z</time>
      </trkpt>
      <trkpt lat="43.97356" lon="5.09323">
        <ele>287.57</ele>
        <time>2018-12-01T13:33:25Z</time>
      </trkpt>
      <trkpt lat="43.97369" lon="5.09323">
        <ele>286.13</ele>
        <time>2018-12-01T13:33:42Z</time>
      </trkpt>
      <trkpt lat="43.97376" lon="5.09322">
        <ele>286.13</ele>
        <time>2018-12-01T13:33:51Z</time>
      </trkpt>
      <trkpt lat="43.97377" lon="5.0932">
        <ele>285.17</ele>
        <time>2018-12-01T13:33:53Z</time>
      </trkpt>
      <trkpt lat="43.97379" lon="5.09317">
        <ele>285.17</ele>
        <time>2018-12-01T13:33:56Z</time>
      </trkpt>
      <trkpt lat="43.97385" lon="5.09311">
        <ele>286.61</ele>
        <time>2018-12-01T13:34:04Z</time>
      </trkpt>
      <trkpt lat="43.97387" lon="5.09309">
        <ele>285.17</ele>
        <time>2018-12-01T13:34:06Z</time>
      </trkpt>
      <trkpt lat="43.97399" lon="5.09297">
        <ele>284.21</ele>
        <time>2018-12-01T13:34:22Z</time>
      </trkpt>
      <trkpt lat="43.97406" lon="5.09288">
        <ele>283.25</ele>
        <time>2018-12-01T13:34:32Z</time>
      </trkpt>
      <trkpt lat="43.97408" lon="5.09286">
        <ele>284.69</ele>
        <time>2018-12-01T13:34:34Z</time>
      </trkpt>
      <trkpt lat="43.97419" lon="5.09271">
        <ele>284.69</ele>
        <time>2018-12-01T13:34:51Z</time>
      </trkpt>
      <trkpt lat="43.97432" lon="5.09255">
        <ele>285.17</ele>
        <time>2018-12-01T13:35:08Z</time>
      </trkpt>
      <trkpt lat="43.97443" lon="5.09231">
        <ele>285.17</ele>
        <time>2018-12-01T13:35:28Z</time>
      </trkpt>
      <trkpt lat="43.97448" lon="5.09216">
        <ele>283.25</ele>
        <time>2018-12-01T13:35:40Z</time>
      </trkpt>
      <trkpt lat="43.97458" lon="5.09196">
        <ele>282.77</ele>
        <time>2018-12-01T13:35:56Z</time>
      </trkpt>
      <trkpt lat="43.97466" lon="5.09182">
        <ele>281.32</ele>
        <time>2018-12-01T13:36:15Z</time>
      </trkpt>
      <trkpt lat="43.97472" lon="5.09173">
        <ele>280.84</ele>
        <time>2018-12-01T13:36:37Z</time>
      </trkpt>
      <trkpt lat="43.97472" lon="5.09172">
        <ele>279.4</ele>
        <time>2018-12-01T13:36:38Z</time>
      </trkpt>
      <trkpt lat="43.97478" lon="5.09169">
        <ele>280.84</ele>
        <time>2018-12-01T13:36:46Z</time>
      </trkpt>
      <trkpt lat="43.97483" lon="5.09166">
        <ele>279.4</ele>
        <time>2018-12-01T13:36:55Z</time>
      </trkpt>
      <trkpt lat="43.97486" lon="5.09167">
        <ele>279.4</ele>
        <time>2018-12-01T13:36:58Z</time>
      </trkpt>
      <trkpt lat="43.97502" lon="5.09176">
        <ele>278.44</ele>
        <time>2018-12-01T13:37:15Z</time>
      </trkpt>
      <trkpt lat="43.97511" lon="5.09189">
        <ele>277.96</ele>
        <time>2018-12-01T13:37:30Z</time>
      </trkpt>
      <trkpt lat="43.97522" lon="5.09205">
        <ele>277.48</ele>
        <time>2018-12-01T13:37:50Z</time>
      </trkpt>
      <trkpt lat="43.97529" lon="5.09215">
        <ele>275.56</ele>
        <time>2018-12-01T13:38:13Z</time>
      </trkpt>
      <trkpt lat="43.97529" lon="5.09219">
        <ele>277</ele>
        <time>2018-12-01T13:38:17Z</time>
      </trkpt>
      <trkpt lat="43.97539" lon="5.09227">
        <ele>277</ele>
        <time>2018-12-01T13:38:34Z</time>
      </trkpt>
      <trkpt lat="43.97552" lon="5.09245">
        <ele>277</ele>
        <time>2018-12-01T13:38:52Z</time>
      </trkpt>
      <trkpt lat="43.97564" lon="5.09257">
        <ele>276.04</ele>
        <time>2018-12-01T13:39:07Z</time>
      </trkpt>
      <trkpt lat="43.97566" lon="5.09258">
        <ele>277.96</ele>
        <time>2018-12-01T13:39:09Z</time>
      </trkpt>
      <trkpt lat="43.97586" lon="5.09276">
        <ele>278.44</ele>
        <time>2018-12-01T13:39:29Z</time>
      </trkpt>
      <trkpt lat="43.97599" lon="5.09283">
        <ele>279.88</ele>
        <time>2018-12-01T13:39:44Z</time>
      </trkpt>
      <trkpt lat="43.97606" lon="5.09287">
        <ele>280.36</ele>
        <time>2018-12-01T13:39:52Z</time>
      </trkpt>
      <trkpt lat="43.97612" lon="5.09292">
        <ele>280.36</ele>
        <time>2018-12-01T13:40:00Z</time>
      </trkpt>
      <trkpt lat="43.97617" lon="5.09297">
        <ele>281.8</ele>
        <time>2018-12-01T13:40:07Z</time>
      </trkpt>
      <trkpt lat="43.97621" lon="5.09304">
        <ele>282.28</ele>
        <time>2018-12-01T13:40:13Z</time>
      </trkpt>
      <trkpt lat="43.97624" lon="5.0931">
        <ele>281.32</ele>
        <time>2018-12-01T13:40:17Z</time>
      </trkpt>
      <trkpt lat="43.97626" lon="5.09314">
        <ele>281.32</ele>
        <time>2018-12-01T13:40:20Z</time>
      </trkpt>
      <trkpt lat="43.9764" lon="5.09331">
        <ele>284.21</ele>
        <time>2018-12-01T13:40:40Z</time>
      </trkpt>
      <trkpt lat="43.97646" lon="5.09341">
        <ele>285.17</ele>
        <time>2018-12-01T13:40:49Z</time>
      </trkpt>
      <trkpt lat="43.97663" lon="5.09344">
        <ele>284.21</ele>
        <time>2018-12-01T13:41:10Z</time>
      </trkpt>
      <trkpt lat="43.97664" lon="5.09343">
        <ele>284.21</ele>
        <time>2018-12-01T13:41:11Z</time>
      </trkpt>
      <trkpt lat="43.97669" lon="5.09339">
        <ele>283.73</ele>
        <time>2018-12-01T13:41:16Z</time>
      </trkpt>
      <trkpt lat="43.97685" lon="5.09325">
        <ele>283.25</ele>
        <time>2018-12-01T13:41:37Z</time>
      </trkpt>
      <trkpt lat="43.97703" lon="5.09307">
        <ele>282.77</ele>
        <time>2018-12-01T13:42:00Z</time>
      </trkpt>
      <trkpt lat="43.97721" lon="5.09284">
        <ele>281.8</ele>
        <time>2018-12-01T13:42:21Z</time>
      </trkpt>
      <trkpt lat="43.9774" lon="5.09264">
        <ele>281.32</ele>
        <time>2018-12-01T13:42:42Z</time>
      </trkpt>
      <trkpt lat="43.97745" lon="5.09259">
        <ele>281.32</ele>
        <time>2018-12-01T13:42:48Z</time>
      </trkpt>
      <trkpt lat="43.97747" lon="5.09257">
        <ele>281.32</ele>
        <time>2018-12-01T13:42:51Z</time>
      </trkpt>
      <trkpt lat="43.97759" lon="5.09258">
        <ele>281.8</ele>
        <time>2018-12-01T13:43:05Z</time>
      </trkpt>
      <trkpt lat="43.97761" lon="5.09259">
        <ele>284.69</ele>
        <time>2018-12-01T13:43:07Z</time>
      </trkpt>
      <trkpt lat="43.97762" lon="5.09258">
        <ele>283.25</ele>
        <time>2018-12-01T13:43:08Z</time>
      </trkpt>
      <trkpt lat="43.97763" lon="5.09259">
        <ele>280.36</ele>
        <time>2018-12-01T13:43:11Z</time>
      </trkpt>
      <trkpt lat="43.97775" lon="5.09267">
        <ele>280.84</ele>
        <time>2018-12-01T13:43:27Z</time>
      </trkpt>
      <trkpt lat="43.97783" lon="5.09271">
        <ele>280.84</ele>
        <time>2018-12-01T13:43:38Z</time>
      </trkpt>
      <trkpt lat="43.97785" lon="5.09271">
        <ele>282.28</ele>
        <time>2018-12-01T13:43:50Z</time>
      </trkpt>
      <trkpt lat="43.97788" lon="5.09272">
        <ele>280.36</ele>
        <time>2018-12-01T13:43:57Z</time>
      </trkpt>
      <trkpt lat="43.9779" lon="5.09272">
        <ele>282.28</ele>
        <time>2018-12-01T13:43:59Z</time>
      </trkpt>
      <trkpt lat="43.97802" lon="5.09272">
        <ele>282.77</ele>
        <time>2018-12-01T13:44:15Z</time>
      </trkpt>
      <trkpt lat="43.9781" lon="5.09271">
        <ele>280.36</ele>
        <time>2018-12-01T13:44:27Z</time>
      </trkpt>
      <trkpt lat="43.97812" lon="5.09273">
        <ele>283.73</ele>
        <time>2018-12-01T13:44:29Z</time>
      </trkpt>
      <trkpt lat="43.97812" lon="5.09273">
        <ele>283.73</ele>
        <time>2018-12-01T13:44:30Z</time>
      </trkpt>
      <trkpt lat="43.97822" lon="5.0927">
        <ele>283.25</ele>
        <time>2018-12-01T13:44:48Z</time>
      </trkpt>
      <trkpt lat="43.97837" lon="5.09266">
        <ele>284.21</ele>
        <time>2018-12-01T13:45:04Z</time>
      </trkpt>
      <trkpt lat="43.9785" lon="5.09262">
        <ele>282.77</ele>
        <time>2018-12-01T13:45:15Z</time>
      </trkpt>
      <trkpt lat="43.97855" lon="5.09259">
        <ele>286.61</ele>
        <time>2018-12-01T13:45:17Z</time>
      </trkpt>
      <trkpt lat="43.97863" lon="5.09255">
        <ele>284.21</ele>
        <time>2018-12-01T13:45:21Z</time>
      </trkpt>
      <trkpt lat="43.97866" lon="5.09255">
        <ele>285.65</ele>
        <time>2018-12-01T13:45:24Z</time>
      </trkpt>
      <trkpt lat="43.97881" lon="5.09256">
        <ele>284.21</ele>
        <time>2018-12-01T13:45:39Z</time>
      </trkpt>
      <trkpt lat="43.97901" lon="5.0926">
        <ele>283.73</ele>
        <time>2018-12-01T13:45:56Z</time>
      </trkpt>
      <trkpt lat="43.97918" lon="5.09275">
        <ele>283.25</ele>
        <time>2018-12-01T13:46:14Z</time>
      </trkpt>
      <trkpt lat="43.9792" lon="5.09279">
        <ele>285.17</ele>
        <time>2018-12-01T13:46:18Z</time>
      </trkpt>
      <trkpt lat="43.97931" lon="5.09289">
        <ele>283.73</ele>
        <time>2018-12-01T13:46:30Z</time>
      </trkpt>
      <trkpt lat="43.97941" lon="5.09297">
        <ele>282.77</ele>
        <time>2018-12-01T13:46:40Z</time>
      </trkpt>
      <trkpt lat="43.9795" lon="5.09303">
        <ele>283.25</ele>
        <time>2018-12-01T13:46:51Z</time>
      </trkpt>
      <trkpt lat="43.97963" lon="5.09313">
        <ele>282.77</ele>
        <time>2018-12-01T13:47:09Z</time>
      </trkpt>
      <trkpt lat="43.97966" lon="5.09314">
        <ele>284.69</ele>
        <time>2018-12-01T13:47:11Z</time>
      </trkpt>
      <trkpt lat="43.97968" lon="5.09316">
        <ele>282.77</ele>
        <time>2018-12-01T13:47:13Z</time>
      </trkpt>
      <trkpt lat="43.97972" lon="5.09318">
        <ele>284.21</ele>
        <time>2018-12-01T13:47:17Z</time>
      </trkpt>
      <trkpt lat="43.97985" lon="5.09327">
        <ele>283.73</ele>
        <time>2018-12-01T13:47:33Z</time>
      </trkpt>
      <trkpt lat="43.97993" lon="5.09336">
        <ele>285.17</ele>
        <time>2018-12-01T13:47:38Z</time>
      </trkpt>
      <trkpt lat="43.98001" lon="5.09348">
        <ele>283.25</ele>
        <time>2018-12-01T13:47:55Z</time>
      </trkpt>
      <trkpt lat="43.98014" lon="5.09362">
        <ele>282.77</ele>
        <time>2018-12-01T13:48:14Z</time>
      </trkpt>
      <trkpt lat="43.98031" lon="5.09376">
        <ele>279.4</ele>
        <time>2018-12-01T13:48:32Z</time>
      </trkpt>
      <trkpt lat="43.98046" lon="5.0938">
        <ele>277</ele>
        <time>2018-12-01T13:48:49Z</time>
      </trkpt>
      <trkpt lat="43.98064" lon="5.09391">
        <ele>275.56</ele>
        <time>2018-12-01T13:49:04Z</time>
      </trkpt>
      <trkpt lat="43.98082" lon="5.0939">
        <ele>274.59</ele>
        <time>2018-12-01T13:49:19Z</time>
      </trkpt>
      <trkpt lat="43.981" lon="5.09378">
        <ele>274.11</ele>
        <time>2018-12-01T13:49:36Z</time>
      </trkpt>
      <trkpt lat="43.98119" lon="5.09366">
        <ele>272.19</ele>
        <time>2018-12-01T13:49:54Z</time>
      </trkpt>
      <trkpt lat="43.98135" lon="5.09352">
        <ele>270.27</ele>
        <time>2018-12-01T13:50:12Z</time>
      </trkpt>
      <trkpt lat="43.98152" lon="5.09334">
        <ele>269.79</ele>
        <time>2018-12-01T13:50:32Z</time>
      </trkpt>
      <trkpt lat="43.98177" lon="5.09316">
        <ele>267.86</ele>
        <time>2018-12-01T13:50:54Z</time>
      </trkpt>
      <trkpt lat="43.98183" lon="5.09312">
        <ele>267.86</ele>
        <time>2018-12-01T13:51:11Z</time>
      </trkpt>
      <trkpt lat="43.98187" lon="5.09325">
        <ele>267.38</ele>
        <time>2018-12-01T13:51:21Z</time>
      </trkpt>
      <trkpt lat="43.98186" lon="5.09331">
        <ele>268.83</ele>
        <time>2018-12-01T13:51:26Z</time>
      </trkpt>
      <trkpt lat="43.98186" lon="5.09334">
        <ele>266.9</ele>
        <time>2018-12-01T13:51:28Z</time>
      </trkpt>
      <trkpt lat="43.98187" lon="5.09352">
        <ele>264.02</ele>
        <time>2018-12-01T13:51:43Z</time>
      </trkpt>
      <trkpt lat="43.98194" lon="5.09369">
        <ele>262.58</ele>
        <time>2018-12-01T13:51:59Z</time>
      </trkpt>
      <trkpt lat="43.98201" lon="5.09398">
        <ele>261.14</ele>
        <time>2018-12-01T13:52:19Z</time>
      </trkpt>
      <trkpt lat="43.98203" lon="5.09401">
        <ele>260.65</ele>
        <time>2018-12-01T13:52:21Z</time>
      </trkpt>
      <trkpt lat="43.98219" lon="5.09418">
        <ele>258.73</ele>
        <time>2018-12-01T13:52:39Z</time>
      </trkpt>
      <trkpt lat="43.98222" lon="5.09428">
        <ele>258.73</ele>
        <time>2018-12-01T13:52:59Z</time>
      </trkpt>
      <trkpt lat="43.98226" lon="5.09443">
        <ele>256.33</ele>
        <time>2018-12-01T13:53:22Z</time>
      </trkpt>
      <trkpt lat="43.98223" lon="5.09452">
        <ele>255.37</ele>
        <time>2018-12-01T13:53:31Z</time>
      </trkpt>
      <trkpt lat="43.98214" lon="5.09463">
        <ele>256.33</ele>
        <time>2018-12-01T13:53:48Z</time>
      </trkpt>
      <trkpt lat="43.98203" lon="5.09468">
        <ele>258.73</ele>
        <time>2018-12-01T13:54:07Z</time>
      </trkpt>
      <trkpt lat="43.98202" lon="5.09468">
        <ele>257.29</ele>
        <time>2018-12-01T13:54:09Z</time>
      </trkpt>
      <trkpt lat="43.98197" lon="5.09473">
        <ele>258.25</ele>
        <time>2018-12-01T13:54:17Z</time>
      </trkpt>
      <trkpt lat="43.98196" lon="5.09494">
        <ele>256.81</ele>
        <time>2018-12-01T13:54:33Z</time>
      </trkpt>
      <trkpt lat="43.982" lon="5.09527">
        <ele>254.89</ele>
        <time>2018-12-01T13:54:56Z</time>
      </trkpt>
      <trkpt lat="43.98201" lon="5.0955">
        <ele>252.96</ele>
        <time>2018-12-01T13:55:17Z</time>
      </trkpt>
      <trkpt lat="43.98199" lon="5.09581">
        <ele>251.04</ele>
        <time>2018-12-01T13:55:38Z</time>
      </trkpt>
      <trkpt lat="43.98199" lon="5.09608">
        <ele>250.56</ele>
        <time>2018-12-01T13:56:00Z</time>
      </trkpt>
      <trkpt lat="43.98204" lon="5.09613">
        <ele>249.6</ele>
        <time>2018-12-01T13:56:07Z</time>
      </trkpt>
      <trkpt lat="43.98203" lon="5.09631">
        <ele>250.56</ele>
        <time>2018-12-01T13:56:26Z</time>
      </trkpt>
      <trkpt lat="43.98205" lon="5.09648">
        <ele>249.6</ele>
        <time>2018-12-01T13:56:35Z</time>
      </trkpt>
      <trkpt lat="43.98224" lon="5.09664">
        <ele>247.2</ele>
        <time>2018-12-01T13:56:57Z</time>
      </trkpt>
      <trkpt lat="43.98224" lon="5.09683">
        <ele>245.75</ele>
        <time>2018-12-01T13:57:16Z</time>
      </trkpt>
      <trkpt lat="43.98207" lon="5.09697">
        <ele>245.27</ele>
        <time>2018-12-01T13:57:38Z</time>
      </trkpt>
      <trkpt lat="43.98205" lon="5.09704">
        <ele>246.72</ele>
        <time>2018-12-01T13:57:43Z</time>
      </trkpt>
      <trkpt lat="43.98194" lon="5.09728">
        <ele>244.79</ele>
        <time>2018-12-01T13:58:05Z</time>
      </trkpt>
      <trkpt lat="43.98185" lon="5.0976">
        <ele>241.91</ele>
        <time>2018-12-01T13:58:25Z</time>
      </trkpt>
      <trkpt lat="43.98175" lon="5.0977">
        <ele>239.02</ele>
        <time>2018-12-01T13:58:43Z</time>
      </trkpt>
      <trkpt lat="43.98157" lon="5.09792">
        <ele>237.1</ele>
        <time>2018-12-01T13:59:06Z</time>
      </trkpt>
      <trkpt lat="43.98148" lon="5.09803">
        <ele>234.22</ele>
        <time>2018-12-01T13:59:21Z</time>
      </trkpt>
      <trkpt lat="43.98143" lon="5.09806">
        <ele>225.09</ele>
        <time>2018-12-01T13:59:29Z</time>
      </trkpt>
      <trkpt lat="43.98139" lon="5.09806">
        <ele>233.26</ele>
        <time>2018-12-01T13:59:30Z</time>
      </trkpt>
      <trkpt lat="43.98138" lon="5.09808">
        <ele>237.58</ele>
        <time>2018-12-01T13:59:31Z</time>
      </trkpt>
      <trkpt lat="43.98137" lon="5.09809">
        <ele>234.7</ele>
        <time>2018-12-01T13:59:32Z</time>
      </trkpt>
      <trkpt lat="43.98129" lon="5.09812">
        <ele>231.33</ele>
        <time>2018-12-01T13:59:42Z</time>
      </trkpt>
      <trkpt lat="43.98126" lon="5.09814">
        <ele>229.41</ele>
        <time>2018-12-01T13:59:48Z</time>
      </trkpt>
      <trkpt lat="43.98125" lon="5.09825">
        <ele>227.01</ele>
        <time>2018-12-01T14:00:05Z</time>
      </trkpt>
      <trkpt lat="43.98127" lon="5.09829">
        <ele>226.53</ele>
        <time>2018-12-01T14:00:10Z</time>
      </trkpt>
      <trkpt lat="43.9813" lon="5.09837">
        <ele>223.64</ele>
        <time>2018-12-01T14:00:19Z</time>
      </trkpt>
      <trkpt lat="43.98133" lon="5.09845">
        <ele>222.68</ele>
        <time>2018-12-01T14:00:39Z</time>
      </trkpt>
      <trkpt lat="43.98133" lon="5.09851">
        <ele>220.76</ele>
        <time>2018-12-01T14:00:48Z</time>
      </trkpt>
      <trkpt lat="43.98133" lon="5.09852">
        <ele>223.64</ele>
        <time>2018-12-01T14:00:49Z</time>
      </trkpt>
      <trkpt lat="43.98134" lon="5.09852">
        <ele>223.64</ele>
        <time>2018-12-01T14:00:50Z</time>
      </trkpt>
      <trkpt lat="43.98136" lon="5.09847">
        <ele>226.53</ele>
        <time>2018-12-01T14:00:57Z</time>
      </trkpt>
      <trkpt lat="43.98136" lon="5.09846">
        <ele>226.53</ele>
        <time>2018-12-01T14:00:58Z</time>
      </trkpt>
      <trkpt lat="43.98137" lon="5.09842">
        <ele>226.53</ele>
        <time>2018-12-01T14:01:04Z</time>
      </trkpt>
      <trkpt lat="43.98133" lon="5.09836">
        <ele>226.05</ele>
        <time>2018-12-01T14:01:24Z</time>
      </trkpt>
      <trkpt lat="43.98133" lon="5.09837">
        <ele>224.12</ele>
        <time>2018-12-01T14:01:26Z</time>
      </trkpt>
      <trkpt lat="43.98133" lon="5.09838">
        <ele>226.05</ele>
        <time>2018-12-01T14:01:28Z</time>
      </trkpt>
      <trkpt lat="43.98133" lon="5.09839">
        <ele>224.61</ele>
        <time>2018-12-01T14:01:30Z</time>
      </trkpt>
      <trkpt lat="43.98136" lon="5.09852">
        <ele>221.24</ele>
        <time>2018-12-01T14:01:45Z</time>
      </trkpt>
      <trkpt lat="43.98143" lon="5.09864">
        <ele>218.36</ele>
        <time>2018-12-01T14:02:01Z</time>
      </trkpt>
      <trkpt lat="43.9815" lon="5.09887">
        <ele>215.47</ele>
        <time>2018-12-01T14:02:20Z</time>
      </trkpt>
      <trkpt lat="43.9815" lon="5.09893">
        <ele>214.03</ele>
        <time>2018-12-01T14:02:25Z</time>
      </trkpt>
      <trkpt lat="43.98159" lon="5.0992">
        <ele>210.67</ele>
        <time>2018-12-01T14:02:46Z</time>
      </trkpt>
      <trkpt lat="43.98164" lon="5.09934">
        <ele>209.22</ele>
        <time>2018-12-01T14:02:56Z</time>
      </trkpt>
      <trkpt lat="43.98176" lon="5.09948">
        <ele>206.82</ele>
        <time>2018-12-01T14:03:19Z</time>
      </trkpt>
      <trkpt lat="43.98177" lon="5.09957">
        <ele>206.34</ele>
        <time>2018-12-01T14:03:27Z</time>
      </trkpt>
      <trkpt lat="43.9818" lon="5.09975">
        <ele>203.46</ele>
        <time>2018-12-01T14:03:44Z</time>
      </trkpt>
      <trkpt lat="43.9818" lon="5.09984">
        <ele>202.49</ele>
        <time>2018-12-01T14:04:02Z</time>
      </trkpt>
      <trkpt lat="43.98188" lon="5.09998">
        <ele>201.05</ele>
        <time>2018-12-01T14:04:17Z</time>
      </trkpt>
      <trkpt lat="43.98192" lon="5.10014">
        <ele>199.13</ele>
        <time>2018-12-01T14:04:42Z</time>
      </trkpt>
      <trkpt lat="43.98196" lon="5.10017">
        <ele>196.25</ele>
        <time>2018-12-01T14:05:00Z</time>
      </trkpt>
      <trkpt lat="43.98198" lon="5.10035">
        <ele>194.32</ele>
        <time>2018-12-01T14:05:23Z</time>
      </trkpt>
      <trkpt lat="43.98196" lon="5.1004">
        <ele>194.8</ele>
        <time>2018-12-01T14:05:33Z</time>
      </trkpt>
      <trkpt lat="43.98188" lon="5.10037">
        <ele>194.32</ele>
        <time>2018-12-01T14:06:03Z</time>
      </trkpt>
      <trkpt lat="43.98186" lon="5.10035">
        <ele>196.25</ele>
        <time>2018-12-01T14:06:09Z</time>
      </trkpt>
      <trkpt lat="43.98185" lon="5.10037">
        <ele>194.8</ele>
        <time>2018-12-01T14:06:14Z</time>
      </trkpt>
      <trkpt lat="43.98185" lon="5.10045">
        <ele>195.77</ele>
        <time>2018-12-01T14:06:24Z</time>
      </trkpt>
      <trkpt lat="43.98185" lon="5.10046">
        <ele>192.88</ele>
        <time>2018-12-01T14:06:25Z</time>
      </trkpt>
      <trkpt lat="43.98186" lon="5.10047">
        <ele>197.69</ele>
        <time>2018-12-01T14:06:26Z</time>
      </trkpt>
      <trkpt lat="43.98186" lon="5.10049">
        <ele>197.69</ele>
        <time>2018-12-01T14:06:27Z</time>
      </trkpt>
      <trkpt lat="43.98189" lon="5.10051">
        <ele>190.48</ele>
        <time>2018-12-01T14:06:37Z</time>
      </trkpt>
      <trkpt lat="43.98189" lon="5.1005">
        <ele>192.88</ele>
        <time>2018-12-01T14:06:38Z</time>
      </trkpt>
      <trkpt lat="43.98189" lon="5.1005">
        <ele>199.61</ele>
        <time>2018-12-01T14:06:39Z</time>
      </trkpt>
      <trkpt lat="43.98189" lon="5.1005">
        <ele>198.17</ele>
        <time>2018-12-01T14:06:40Z</time>
      </trkpt>
      <trkpt lat="43.98188" lon="5.10049">
        <ele>194.8</ele>
        <time>2018-12-01T14:06:42Z</time>
      </trkpt>
      <trkpt lat="43.98188" lon="5.10049">
        <ele>194.8</ele>
        <time>2018-12-01T14:06:43Z</time>
      </trkpt>
      <trkpt lat="43.98186" lon="5.10048">
        <ele>190.96</ele>
        <time>2018-12-01T14:06:45Z</time>
      </trkpt>
      <trkpt lat="43.98184" lon="5.10047">
        <ele>200.09</ele>
        <time>2018-12-01T14:06:46Z</time>
      </trkpt>
      <trkpt lat="43.98181" lon="5.10047">
        <ele>196.25</ele>
        <time>2018-12-01T14:06:47Z</time>
      </trkpt>
      <trkpt lat="43.98174" lon="5.10045">
        <ele>192.88</ele>
        <time>2018-12-01T14:06:53Z</time>
      </trkpt>
      <trkpt lat="43.98174" lon="5.10045">
        <ele>200.09</ele>
        <time>2018-12-01T14:06:54Z</time>
      </trkpt>
      <trkpt lat="43.98173" lon="5.10051">
        <ele>197.21</ele>
        <time>2018-12-01T14:06:59Z</time>
      </trkpt>
      <trkpt lat="43.98173" lon="5.10056">
        <ele>200.57</ele>
        <time>2018-12-01T14:07:14Z</time>
      </trkpt>
      <trkpt lat="43.98173" lon="5.10056">
        <ele>200.57</ele>
        <time>2018-12-01T14:07:15Z</time>
      </trkpt>
      <trkpt lat="43.98172" lon="5.10058">
        <ele>197.21</ele>
        <time>2018-12-01T14:07:19Z</time>
      </trkpt>
      <trkpt lat="43.98171" lon="5.10058">
        <ele>201.53</ele>
        <time>2018-12-01T14:07:20Z</time>
      </trkpt>
      <trkpt lat="43.98166" lon="5.10064">
        <ele>204.9</ele>
        <time>2018-12-01T14:07:38Z</time>
      </trkpt>
      <trkpt lat="43.98166" lon="5.10066">
        <ele>201.53</ele>
        <time>2018-12-01T14:07:41Z</time>
      </trkpt>
      <trkpt lat="43.98165" lon="5.10067">
        <ele>201.53</ele>
        <time>2018-12-01T14:07:42Z</time>
      </trkpt>
      <trkpt lat="43.98164" lon="5.10071">
        <ele>204.9</ele>
        <time>2018-12-01T14:07:46Z</time>
      </trkpt>
      <trkpt lat="43.98162" lon="5.10078">
        <ele>204.42</ele>
        <time>2018-12-01T14:07:50Z</time>
      </trkpt>
      <trkpt lat="43.98148" lon="5.10096">
        <ele>207.3</ele>
        <time>2018-12-01T14:08:08Z</time>
      </trkpt>
      <trkpt lat="43.98143" lon="5.101">
        <ele>204.42</ele>
        <time>2018-12-01T14:08:19Z</time>
      </trkpt>
      <trkpt lat="43.98142" lon="5.10101">
        <ele>211.15</ele>
        <time>2018-12-01T14:08:20Z</time>
      </trkpt>
      <trkpt lat="43.98142" lon="5.10101">
        <ele>206.34</ele>
        <time>2018-12-01T14:08:21Z</time>
      </trkpt>
      <trkpt lat="43.98142" lon="5.10102">
        <ele>210.67</ele>
        <time>2018-12-01T14:08:22Z</time>
      </trkpt>
      <trkpt lat="43.98142" lon="5.10103">
        <ele>206.82</ele>
        <time>2018-12-01T14:08:23Z</time>
      </trkpt>
      <trkpt lat="43.98142" lon="5.10103">
        <ele>211.15</ele>
        <time>2018-12-01T14:08:24Z</time>
      </trkpt>
      <trkpt lat="43.98141" lon="5.10104">
        <ele>205.86</ele>
        <time>2018-12-01T14:08:25Z</time>
      </trkpt>
      <trkpt lat="43.98141" lon="5.10104">
        <ele>210.67</ele>
        <time>2018-12-01T14:08:26Z</time>
      </trkpt>
      <trkpt lat="43.9814" lon="5.10111">
        <ele>209.22</ele>
        <time>2018-12-01T14:08:30Z</time>
      </trkpt>
      <trkpt lat="43.98141" lon="5.10125">
        <ele>208.74</ele>
        <time>2018-12-01T14:08:46Z</time>
      </trkpt>
      <trkpt lat="43.98139" lon="5.10128">
        <ele>209.7</ele>
        <time>2018-12-01T14:08:53Z</time>
      </trkpt>
      <trkpt lat="43.98128" lon="5.10144">
        <ele>210.19</ele>
        <time>2018-12-01T14:09:03Z</time>
      </trkpt>
      <trkpt lat="43.98113" lon="5.10157">
        <ele>211.63</ele>
        <time>2018-12-01T14:09:19Z</time>
      </trkpt>
      <trkpt lat="43.98102" lon="5.10168">
        <ele>211.63</ele>
        <time>2018-12-01T14:09:34Z</time>
      </trkpt>
      <trkpt lat="43.98092" lon="5.10181">
        <ele>213.55</ele>
        <time>2018-12-01T14:09:49Z</time>
      </trkpt>
      <trkpt lat="43.98091" lon="5.10183">
        <ele>212.11</ele>
        <time>2018-12-01T14:09:51Z</time>
      </trkpt>
      <trkpt lat="43.98086" lon="5.1019">
        <ele>213.55</ele>
        <time>2018-12-01T14:10:02Z</time>
      </trkpt>
      <trkpt lat="43.9808" lon="5.10201">
        <ele>215.47</ele>
        <time>2018-12-01T14:10:18Z</time>
      </trkpt>
      <trkpt lat="43.9808" lon="5.10216">
        <ele>217.88</ele>
        <time>2018-12-01T14:10:33Z</time>
      </trkpt>
      <trkpt lat="43.9808" lon="5.10217">
        <ele>217.88</ele>
        <time>2018-12-01T14:10:34Z</time>
      </trkpt>
      <trkpt lat="43.98091" lon="5.10215">
        <ele>219.8</ele>
        <time>2018-12-01T14:10:50Z</time>
      </trkpt>
      <trkpt lat="43.98098" lon="5.10218">
        <ele>220.76</ele>
        <time>2018-12-01T14:11:02Z</time>
      </trkpt>
      <trkpt lat="43.98092" lon="5.10226">
        <ele>222.68</ele>
        <time>2018-12-01T14:11:16Z</time>
      </trkpt>
      <trkpt lat="43.98085" lon="5.10234">
        <ele>221.24</ele>
        <time>2018-12-01T14:11:30Z</time>
      </trkpt>
      <trkpt lat="43.98077" lon="5.10244">
        <ele>220.76</ele>
        <time>2018-12-01T14:11:47Z</time>
      </trkpt>
      <trkpt lat="43.98075" lon="5.1025">
        <ele>220.76</ele>
        <time>2018-12-01T14:11:52Z</time>
      </trkpt>
      <trkpt lat="43.98074" lon="5.10254">
        <ele>221.24</ele>
        <time>2018-12-01T14:11:56Z</time>
      </trkpt>
      <trkpt lat="43.98066" lon="5.10274">
        <ele>219.8</ele>
        <time>2018-12-01T14:12:13Z</time>
      </trkpt>
      <trkpt lat="43.98066" lon="5.10275">
        <ele>219.8</ele>
        <time>2018-12-01T14:12:14Z</time>
      </trkpt>
      <trkpt lat="43.98065" lon="5.10277">
        <ele>221.24</ele>
        <time>2018-12-01T14:12:17Z</time>
      </trkpt>
      <trkpt lat="43.98061" lon="5.10284">
        <ele>219.32</ele>
        <time>2018-12-01T14:12:37Z</time>
      </trkpt>
      <trkpt lat="43.98059" lon="5.10286">
        <ele>221.24</ele>
        <time>2018-12-01T14:12:40Z</time>
      </trkpt>
      <trkpt lat="43.9805" lon="5.10293">
        <ele>220.28</ele>
        <time>2018-12-01T14:12:55Z</time>
      </trkpt>
      <trkpt lat="43.98045" lon="5.10296">
        <ele>221.72</ele>
        <time>2018-12-01T14:13:02Z</time>
      </trkpt>
      <trkpt lat="43.98026" lon="5.10308">
        <ele>223.64</ele>
        <time>2018-12-01T14:13:26Z</time>
      </trkpt>
      <trkpt lat="43.98012" lon="5.1033">
        <ele>225.57</ele>
        <time>2018-12-01T14:13:52Z</time>
      </trkpt>
      <trkpt lat="43.98007" lon="5.10342">
        <ele>225.09</ele>
        <time>2018-12-01T14:13:59Z</time>
      </trkpt>
      <trkpt lat="43.98" lon="5.10367">
        <ele>228.45</ele>
        <time>2018-12-01T14:14:22Z</time>
      </trkpt>
      <trkpt lat="43.97996" lon="5.10368">
        <ele>230.37</ele>
        <time>2018-12-01T14:14:32Z</time>
      </trkpt>
      <trkpt lat="43.97992" lon="5.10375">
        <ele>231.33</ele>
        <time>2018-12-01T14:14:43Z</time>
      </trkpt>
      <trkpt lat="43.97992" lon="5.10381">
        <ele>231.81</ele>
        <time>2018-12-01T14:14:47Z</time>
      </trkpt>
      <trkpt lat="43.97988" lon="5.10398">
        <ele>233.74</ele>
        <time>2018-12-01T14:15:02Z</time>
      </trkpt>
      <trkpt lat="43.97985" lon="5.10401">
        <ele>232.3</ele>
        <time>2018-12-01T14:15:11Z</time>
      </trkpt>
      <trkpt lat="43.97983" lon="5.10405">
        <ele>233.74</ele>
        <time>2018-12-01T14:15:16Z</time>
      </trkpt>
      <trkpt lat="43.97981" lon="5.10411">
        <ele>235.18</ele>
        <time>2018-12-01T14:15:23Z</time>
      </trkpt>
      <trkpt lat="43.97975" lon="5.1042">
        <ele>236.14</ele>
        <time>2018-12-01T14:15:35Z</time>
      </trkpt>
      <trkpt lat="43.97969" lon="5.10443">
        <ele>236.62</ele>
        <time>2018-12-01T14:15:59Z</time>
      </trkpt>
      <trkpt lat="43.97965" lon="5.10448">
        <ele>239.99</ele>
        <time>2018-12-01T14:16:07Z</time>
      </trkpt>
      <trkpt lat="43.97961" lon="5.10448">
        <ele>239.99</ele>
        <time>2018-12-01T14:16:15Z</time>
      </trkpt>
      <trkpt lat="43.97954" lon="5.10456">
        <ele>243.35</ele>
        <time>2018-12-01T14:16:34Z</time>
      </trkpt>
      <trkpt lat="43.97952" lon="5.1046">
        <ele>242.87</ele>
        <time>2018-12-01T14:16:38Z</time>
      </trkpt>
      <trkpt lat="43.97944" lon="5.10483">
        <ele>245.75</ele>
        <time>2018-12-01T14:16:59Z</time>
      </trkpt>
      <trkpt lat="43.97935" lon="5.10487">
        <ele>246.72</ele>
        <time>2018-12-01T14:17:14Z</time>
      </trkpt>
      <trkpt lat="43.97932" lon="5.10493">
        <ele>248.64</ele>
        <time>2018-12-01T14:17:22Z</time>
      </trkpt>
      <trkpt lat="43.97931" lon="5.10495">
        <ele>246.72</ele>
        <time>2018-12-01T14:17:25Z</time>
      </trkpt>
      <trkpt lat="43.97931" lon="5.1051">
        <ele>251.52</ele>
        <time>2018-12-01T14:17:37Z</time>
      </trkpt>
      <trkpt lat="43.9793" lon="5.10511">
        <ele>251.52</ele>
        <time>2018-12-01T14:17:38Z</time>
      </trkpt>
      <trkpt lat="43.9793" lon="5.10512">
        <ele>248.16</ele>
        <time>2018-12-01T14:17:39Z</time>
      </trkpt>
      <trkpt lat="43.9793" lon="5.10514">
        <ele>250.08</ele>
        <time>2018-12-01T14:17:40Z</time>
      </trkpt>
      <trkpt lat="43.9793" lon="5.10516">
        <ele>242.87</ele>
        <time>2018-12-01T14:17:42Z</time>
      </trkpt>
      <trkpt lat="43.9793" lon="5.10517">
        <ele>253.93</ele>
        <time>2018-12-01T14:17:43Z</time>
      </trkpt>
      <trkpt lat="43.9793" lon="5.10518">
        <ele>250.56</ele>
        <time>2018-12-01T14:17:44Z</time>
      </trkpt>
      <trkpt lat="43.97932" lon="5.10522">
        <ele>249.12</ele>
        <time>2018-12-01T14:17:48Z</time>
      </trkpt>
      <trkpt lat="43.97932" lon="5.10529">
        <ele>253.93</ele>
        <time>2018-12-01T14:17:55Z</time>
      </trkpt>
      <trkpt lat="43.97932" lon="5.10529">
        <ele>252.48</ele>
        <time>2018-12-01T14:17:56Z</time>
      </trkpt>
      <trkpt lat="43.97932" lon="5.1053">
        <ele>249.6</ele>
        <time>2018-12-01T14:17:58Z</time>
      </trkpt>
      <trkpt lat="43.97932" lon="5.1053">
        <ele>252.48</ele>
        <time>2018-12-01T14:18:01Z</time>
      </trkpt>
      <trkpt lat="43.97931" lon="5.1054">
        <ele>256.33</ele>
        <time>2018-12-01T14:18:19Z</time>
      </trkpt>
      <trkpt lat="43.97932" lon="5.10541">
        <ele>256.33</ele>
        <time>2018-12-01T14:18:20Z</time>
      </trkpt>
      <trkpt lat="43.97935" lon="5.10551">
        <ele>254.41</ele>
        <time>2018-12-01T14:18:34Z</time>
      </trkpt>
      <trkpt lat="43.97928" lon="5.1056">
        <ele>256.33</ele>
        <time>2018-12-01T14:18:53Z</time>
      </trkpt>
      <trkpt lat="43.97927" lon="5.10561">
        <ele>257.29</ele>
        <time>2018-12-01T14:18:57Z</time>
      </trkpt>
      <trkpt lat="43.97925" lon="5.10564">
        <ele>256.33</ele>
        <time>2018-12-01T14:19:02Z</time>
      </trkpt>
      <trkpt lat="43.97923" lon="5.10568">
        <ele>257.77</ele>
        <time>2018-12-01T14:19:09Z</time>
      </trkpt>
      <trkpt lat="43.97922" lon="5.10582">
        <ele>257.29</ele>
        <time>2018-12-01T14:19:33Z</time>
      </trkpt>
      <trkpt lat="43.97906" lon="5.10601">
        <ele>258.73</ele>
        <time>2018-12-01T14:19:56Z</time>
      </trkpt>
      <trkpt lat="43.97892" lon="5.10627">
        <ele>258.73</ele>
        <time>2018-12-01T14:20:17Z</time>
      </trkpt>
      <trkpt lat="43.97877" lon="5.10647">
        <ele>259.21</ele>
        <time>2018-12-01T14:20:38Z</time>
      </trkpt>
      <trkpt lat="43.97862" lon="5.10668">
        <ele>259.69</ele>
        <time>2018-12-01T14:21:00Z</time>
      </trkpt>
      <trkpt lat="43.97847" lon="5.10681">
        <ele>260.17</ele>
        <time>2018-12-01T14:21:18Z</time>
      </trkpt>
      <trkpt lat="43.97836" lon="5.10701">
        <ele>260.65</ele>
        <time>2018-12-01T14:21:36Z</time>
      </trkpt>
      <trkpt lat="43.97825" lon="5.1073">
        <ele>262.1</ele>
        <time>2018-12-01T14:21:58Z</time>
      </trkpt>
      <trkpt lat="43.97821" lon="5.10756">
        <ele>263.06</ele>
        <time>2018-12-01T14:22:17Z</time>
      </trkpt>
      <trkpt lat="43.97815" lon="5.10779">
        <ele>265.46</ele>
        <time>2018-12-01T14:22:40Z</time>
      </trkpt>
      <trkpt lat="43.97811" lon="5.10808">
        <ele>267.38</ele>
        <time>2018-12-01T14:23:03Z</time>
      </trkpt>
      <trkpt lat="43.97805" lon="5.10827">
        <ele>268.83</ele>
        <time>2018-12-01T14:23:23Z</time>
      </trkpt>
      <trkpt lat="43.97797" lon="5.10854">
        <ele>271.23</ele>
        <time>2018-12-01T14:23:44Z</time>
      </trkpt>
      <trkpt lat="43.97792" lon="5.10868">
        <ele>272.19</ele>
        <time>2018-12-01T14:24:00Z</time>
      </trkpt>
      <trkpt lat="43.97792" lon="5.10873">
        <ele>272.67</ele>
        <time>2018-12-01T14:24:16Z</time>
      </trkpt>
      <trkpt lat="43.97783" lon="5.10885">
        <ele>273.15</ele>
        <time>2018-12-01T14:24:32Z</time>
      </trkpt>
      <trkpt lat="43.97772" lon="5.10903">
        <ele>272.67</ele>
        <time>2018-12-01T14:24:52Z</time>
      </trkpt>
      <trkpt lat="43.97763" lon="5.10914">
        <ele>272.19</ele>
        <time>2018-12-01T14:25:12Z</time>
      </trkpt>
      <trkpt lat="43.97752" lon="5.10925">
        <ele>271.23</ele>
        <time>2018-12-01T14:25:29Z</time>
      </trkpt>
      <trkpt lat="43.97741" lon="5.10938">
        <ele>269.31</ele>
        <time>2018-12-01T14:25:46Z</time>
      </trkpt>
      <trkpt lat="43.97729" lon="5.10939">
        <ele>269.31</ele>
        <time>2018-12-01T14:26:02Z</time>
      </trkpt>
      <trkpt lat="43.97728" lon="5.10939">
        <ele>267.86</ele>
        <time>2018-12-01T14:26:03Z</time>
      </trkpt>
      <trkpt lat="43.97716" lon="5.10945">
        <ele>273.15</ele>
        <time>2018-12-01T14:26:06Z</time>
      </trkpt>
      <trkpt lat="43.97714" lon="5.10947">
        <ele>269.31</ele>
        <time>2018-12-01T14:26:07Z</time>
      </trkpt>
      <trkpt lat="43.97698" lon="5.10957">
        <ele>268.35</ele>
        <time>2018-12-01T14:26:22Z</time>
      </trkpt>
      <trkpt lat="43.97687" lon="5.10966">
        <ele>267.38</ele>
        <time>2018-12-01T14:26:37Z</time>
      </trkpt>
      <trkpt lat="43.97673" lon="5.10972">
        <ele>268.35</ele>
        <time>2018-12-01T14:26:53Z</time>
      </trkpt>
      <trkpt lat="43.97672" lon="5.10961">
        <ele>268.35</ele>
        <time>2018-12-01T14:27:05Z</time>
      </trkpt>
      <trkpt lat="43.9767" lon="5.10948">
        <ele>268.83</ele>
        <time>2018-12-01T14:27:19Z</time>
      </trkpt>
      <trkpt lat="43.97664" lon="5.10935">
        <ele>270.75</ele>
        <time>2018-12-01T14:27:32Z</time>
      </trkpt>
      <trkpt lat="43.97663" lon="5.10935">
        <ele>270.75</ele>
        <time>2018-12-01T14:27:33Z</time>
      </trkpt>
      <trkpt lat="43.97659" lon="5.10928">
        <ele>272.19</ele>
        <time>2018-12-01T14:27:47Z</time>
      </trkpt>
      <trkpt lat="43.97665" lon="5.10919">
        <ele>274.11</ele>
        <time>2018-12-01T14:28:02Z</time>
      </trkpt>
      <trkpt lat="43.97657" lon="5.10916">
        <ele>277</ele>
        <time>2018-12-01T14:28:21Z</time>
      </trkpt>
      <trkpt lat="43.97653" lon="5.10907">
        <ele>280.36</ele>
        <time>2018-12-01T14:28:42Z</time>
      </trkpt>
      <trkpt lat="43.97651" lon="5.10886">
        <ele>283.73</ele>
        <time>2018-12-01T14:29:07Z</time>
      </trkpt>
      <trkpt lat="43.97651" lon="5.10884">
        <ele>281.32</ele>
        <time>2018-12-01T14:29:10Z</time>
      </trkpt>
      <trkpt lat="43.9765" lon="5.10883">
        <ele>284.21</ele>
        <time>2018-12-01T14:29:11Z</time>
      </trkpt>
      <trkpt lat="43.9765" lon="5.10882">
        <ele>283.25</ele>
        <time>2018-12-01T14:29:12Z</time>
      </trkpt>
      <trkpt lat="43.97649" lon="5.10881">
        <ele>281.8</ele>
        <time>2018-12-01T14:29:13Z</time>
      </trkpt>
      <trkpt lat="43.97642" lon="5.10859">
        <ele>284.21</ele>
        <time>2018-12-01T14:29:30Z</time>
      </trkpt>
      <trkpt lat="43.97639" lon="5.10858">
        <ele>287.57</ele>
        <time>2018-12-01T14:29:35Z</time>
      </trkpt>
      <trkpt lat="43.97632" lon="5.10856">
        <ele>290.94</ele>
        <time>2018-12-01T14:29:57Z</time>
      </trkpt>
      <trkpt lat="43.97633" lon="5.1086">
        <ele>288.05</ele>
        <time>2018-12-01T14:30:05Z</time>
      </trkpt>
      <trkpt lat="43.97632" lon="5.1086">
        <ele>290.94</ele>
        <time>2018-12-01T14:30:07Z</time>
      </trkpt>
      <trkpt lat="43.97632" lon="5.1086">
        <ele>289.49</ele>
        <time>2018-12-01T14:30:08Z</time>
      </trkpt>
      <trkpt lat="43.97628" lon="5.10858">
        <ele>289.97</ele>
        <time>2018-12-01T14:30:13Z</time>
      </trkpt>
      <trkpt lat="43.97619" lon="5.10854">
        <ele>290.94</ele>
        <time>2018-12-01T14:30:46Z</time>
      </trkpt>
      <trkpt lat="43.97618" lon="5.10854">
        <ele>290.46</ele>
        <time>2018-12-01T14:30:48Z</time>
      </trkpt>
      <trkpt lat="43.97617" lon="5.10849">
        <ele>292.38</ele>
        <time>2018-12-01T14:30:55Z</time>
      </trkpt>
      <trkpt lat="43.97613" lon="5.10844">
        <ele>294.78</ele>
        <time>2018-12-01T14:31:12Z</time>
      </trkpt>
      <trkpt lat="43.9761" lon="5.10841">
        <ele>286.13</ele>
        <time>2018-12-01T14:31:14Z</time>
      </trkpt>
      <trkpt lat="43.97605" lon="5.10841">
        <ele>299.59</ele>
        <time>2018-12-01T14:31:15Z</time>
      </trkpt>
      <trkpt lat="43.97602" lon="5.10841">
        <ele>297.67</ele>
        <time>2018-12-01T14:31:16Z</time>
      </trkpt>
      <trkpt lat="43.97595" lon="5.10838">
        <ele>295.26</ele>
        <time>2018-12-01T14:31:19Z</time>
      </trkpt>
      <trkpt lat="43.97592" lon="5.10837">
        <ele>296.22</ele>
        <time>2018-12-01T14:31:21Z</time>
      </trkpt>
      <trkpt lat="43.97584" lon="5.10832">
        <ele>296.7</ele>
        <time>2018-12-01T14:31:37Z</time>
      </trkpt>
      <trkpt lat="43.97579" lon="5.10833">
        <ele>299.11</ele>
        <time>2018-12-01T14:31:45Z</time>
      </trkpt>
      <trkpt lat="43.97576" lon="5.10834">
        <ele>298.63</ele>
        <time>2018-12-01T14:31:59Z</time>
      </trkpt>
      <trkpt lat="43.97576" lon="5.10833">
        <ele>298.63</ele>
        <time>2018-12-01T14:32:12Z</time>
      </trkpt>
      <trkpt lat="43.97566" lon="5.10831">
        <ele>299.59</ele>
        <time>2018-12-01T14:32:29Z</time>
      </trkpt>
      <trkpt lat="43.97563" lon="5.10827">
        <ele>301.99</ele>
        <time>2018-12-01T14:32:46Z</time>
      </trkpt>
      <trkpt lat="43.97561" lon="5.10826">
        <ele>302.95</ele>
        <time>2018-12-01T14:33:02Z</time>
      </trkpt>
      <trkpt lat="43.9756" lon="5.10827">
        <ele>304.39</ele>
        <time>2018-12-01T14:33:05Z</time>
      </trkpt>
      <trkpt lat="43.97553" lon="5.10828">
        <ele>306.32</ele>
        <time>2018-12-01T14:33:18Z</time>
      </trkpt>
      <trkpt lat="43.97549" lon="5.10829">
        <ele>308.24</ele>
        <time>2018-12-01T14:33:36Z</time>
      </trkpt>
      <trkpt lat="43.97535" lon="5.10828">
        <ele>310.16</ele>
        <time>2018-12-01T14:33:53Z</time>
      </trkpt>
      <trkpt lat="43.97529" lon="5.10828">
        <ele>313.05</ele>
        <time>2018-12-01T14:34:04Z</time>
      </trkpt>
      <trkpt lat="43.97517" lon="5.10826">
        <ele>314.01</ele>
        <time>2018-12-01T14:34:21Z</time>
      </trkpt>
      <trkpt lat="43.9751" lon="5.10828">
        <ele>315.45</ele>
        <time>2018-12-01T14:34:34Z</time>
      </trkpt>
      <trkpt lat="43.975" lon="5.1083">
        <ele>316.41</ele>
        <time>2018-12-01T14:34:48Z</time>
      </trkpt>
      <trkpt lat="43.97492" lon="5.10831">
        <ele>317.85</ele>
        <time>2018-12-01T14:35:01Z</time>
      </trkpt>
      <trkpt lat="43.97489" lon="5.10832">
        <ele>319.3</ele>
        <time>2018-12-01T14:35:07Z</time>
      </trkpt>
      <trkpt lat="43.9748" lon="5.10832">
        <ele>319.78</ele>
        <time>2018-12-01T14:35:28Z</time>
      </trkpt>
      <trkpt lat="43.9748" lon="5.10831">
        <ele>319.78</ele>
        <time>2018-12-01T14:35:29Z</time>
      </trkpt>
      <trkpt lat="43.97475" lon="5.10824">
        <ele>321.22</ele>
        <time>2018-12-01T14:35:45Z</time>
      </trkpt>
      <trkpt lat="43.97472" lon="5.10822">
        <ele>322.66</ele>
        <time>2018-12-01T14:36:00Z</time>
      </trkpt>
      <trkpt lat="43.97469" lon="5.10821">
        <ele>324.58</ele>
        <time>2018-12-01T14:36:06Z</time>
      </trkpt>
      <trkpt lat="43.97463" lon="5.10813">
        <ele>325.06</ele>
        <time>2018-12-01T14:36:19Z</time>
      </trkpt>
      <trkpt lat="43.97455" lon="5.10803">
        <ele>326.5</ele>
        <time>2018-12-01T14:36:33Z</time>
      </trkpt>
      <trkpt lat="43.97446" lon="5.10795">
        <ele>327.95</ele>
        <time>2018-12-01T14:36:48Z</time>
      </trkpt>
      <trkpt lat="43.97436" lon="5.10791">
        <ele>329.39</ele>
        <time>2018-12-01T14:37:03Z</time>
      </trkpt>
      <trkpt lat="43.97435" lon="5.10789">
        <ele>325.06</ele>
        <time>2018-12-01T14:37:09Z</time>
      </trkpt>
      <trkpt lat="43.97434" lon="5.10789">
        <ele>317.85</ele>
        <time>2018-12-01T14:37:10Z</time>
      </trkpt>
      <trkpt lat="43.97434" lon="5.10789">
        <ele>319.3</ele>
        <time>2018-12-01T14:37:11Z</time>
      </trkpt>
      <trkpt lat="43.97433" lon="5.10789">
        <ele>341.89</ele>
        <time>2018-12-01T14:37:12Z</time>
      </trkpt>
      <trkpt lat="43.97432" lon="5.10789">
        <ele>338.04</ele>
        <time>2018-12-01T14:37:13Z</time>
      </trkpt>
      <trkpt lat="43.97431" lon="5.10789">
        <ele>331.79</ele>
        <time>2018-12-01T14:37:14Z</time>
      </trkpt>
      <trkpt lat="43.9743" lon="5.10789">
        <ele>328.43</ele>
        <time>2018-12-01T14:37:16Z</time>
      </trkpt>
      <trkpt lat="43.97428" lon="5.1079">
        <ele>327.95</ele>
        <time>2018-12-01T14:37:21Z</time>
      </trkpt>
      <trkpt lat="43.97426" lon="5.10792">
        <ele>330.35</ele>
        <time>2018-12-01T14:37:41Z</time>
      </trkpt>
      <trkpt lat="43.97426" lon="5.10791">
        <ele>328.43</ele>
        <time>2018-12-01T14:38:00Z</time>
      </trkpt>
      <trkpt lat="43.97425" lon="5.10791">
        <ele>329.87</ele>
        <time>2018-12-01T14:38:02Z</time>
      </trkpt>
      <trkpt lat="43.97419" lon="5.10786">
        <ele>328.91</ele>
        <time>2018-12-01T14:38:25Z</time>
      </trkpt>
      <trkpt lat="43.97418" lon="5.10786">
        <ele>332.75</ele>
        <time>2018-12-01T14:38:26Z</time>
      </trkpt>
      <trkpt lat="43.97417" lon="5.10785">
        <ele>329.39</ele>
        <time>2018-12-01T14:38:28Z</time>
      </trkpt>
      <trkpt lat="43.97416" lon="5.10785">
        <ele>329.39</ele>
        <time>2018-12-01T14:38:29Z</time>
      </trkpt>
      <trkpt lat="43.97414" lon="5.10784">
        <ele>331.79</ele>
        <time>2018-12-01T14:38:32Z</time>
      </trkpt>
      <trkpt lat="43.9741" lon="5.1078">
        <ele>332.75</ele>
        <time>2018-12-01T14:38:40Z</time>
      </trkpt>
      <trkpt lat="43.97398" lon="5.10769">
        <ele>334.68</ele>
        <time>2018-12-01T14:39:04Z</time>
      </trkpt>
      <trkpt lat="43.97389" lon="5.10764">
        <ele>336.6</ele>
        <time>2018-12-01T14:39:25Z</time>
      </trkpt>
      <trkpt lat="43.97386" lon="5.10763">
        <ele>338.04</ele>
        <time>2018-12-01T14:39:32Z</time>
      </trkpt>
      <trkpt lat="43.97384" lon="5.10763">
        <ele>336.6</ele>
        <time>2018-12-01T14:39:34Z</time>
      </trkpt>
      <trkpt lat="43.97374" lon="5.10755">
        <ele>340.44</ele>
        <time>2018-12-01T14:39:49Z</time>
      </trkpt>
      <trkpt lat="43.97371" lon="5.10755">
        <ele>337.56</ele>
        <time>2018-12-01T14:39:52Z</time>
      </trkpt>
      <trkpt lat="43.97366" lon="5.10756">
        <ele>340.92</ele>
        <time>2018-12-01T14:40:00Z</time>
      </trkpt>
      <trkpt lat="43.97365" lon="5.10756">
        <ele>340.92</ele>
        <time>2018-12-01T14:40:01Z</time>
      </trkpt>
      <trkpt lat="43.97352" lon="5.10775">
        <ele>342.85</ele>
        <time>2018-12-01T14:40:26Z</time>
      </trkpt>
      <trkpt lat="43.97347" lon="5.10781">
        <ele>342.85</ele>
        <time>2018-12-01T14:40:36Z</time>
      </trkpt>
      <trkpt lat="43.97347" lon="5.10784">
        <ele>343.81</ele>
        <time>2018-12-01T14:40:45Z</time>
      </trkpt>
      <trkpt lat="43.9734" lon="5.10792">
        <ele>343.81</ele>
        <time>2018-12-01T14:40:59Z</time>
      </trkpt>
      <trkpt lat="43.97337" lon="5.10793">
        <ele>345.25</ele>
        <time>2018-12-01T14:41:02Z</time>
      </trkpt>
      <trkpt lat="43.97327" lon="5.10799">
        <ele>347.17</ele>
        <time>2018-12-01T14:41:25Z</time>
      </trkpt>
      <trkpt lat="43.9731" lon="5.10796">
        <ele>345.73</ele>
        <time>2018-12-01T14:41:44Z</time>
      </trkpt>
      <trkpt lat="43.97298" lon="5.10794">
        <ele>338.04</ele>
        <time>2018-12-01T14:41:57Z</time>
      </trkpt>
      <trkpt lat="43.97295" lon="5.10798">
        <ele>350.06</ele>
        <time>2018-12-01T14:41:58Z</time>
      </trkpt>
      <trkpt lat="43.97294" lon="5.10802">
        <ele>348.62</ele>
        <time>2018-12-01T14:42:01Z</time>
      </trkpt>
      <trkpt lat="43.97289" lon="5.10818">
        <ele>348.62</ele>
        <time>2018-12-01T14:42:13Z</time>
      </trkpt>
      <trkpt lat="43.97277" lon="5.10829">
        <ele>349.58</ele>
        <time>2018-12-01T14:42:30Z</time>
      </trkpt>
      <trkpt lat="43.97271" lon="5.10832">
        <ele>350.54</ele>
        <time>2018-12-01T14:42:45Z</time>
      </trkpt>
      <trkpt lat="43.97263" lon="5.1084">
        <ele>350.54</ele>
        <time>2018-12-01T14:43:01Z</time>
      </trkpt>
      <trkpt lat="43.9725" lon="5.10843">
        <ele>350.54</ele>
        <time>2018-12-01T14:43:17Z</time>
      </trkpt>
      <trkpt lat="43.97235" lon="5.10848">
        <ele>350.54</ele>
        <time>2018-12-01T14:43:39Z</time>
      </trkpt>
      <trkpt lat="43.9722" lon="5.10861">
        <ele>351.02</ele>
        <time>2018-12-01T14:44:00Z</time>
      </trkpt>
      <trkpt lat="43.97209" lon="5.10858">
        <ele>352.46</ele>
        <time>2018-12-01T14:44:19Z</time>
      </trkpt>
      <trkpt lat="43.97189" lon="5.1086">
        <ele>352.46</ele>
        <time>2018-12-01T14:44:41Z</time>
      </trkpt>
      <trkpt lat="43.97177" lon="5.10856">
        <ele>352.46</ele>
        <time>2018-12-01T14:45:01Z</time>
      </trkpt>
      <trkpt lat="43.97171" lon="5.10844">
        <ele>353.9</ele>
        <time>2018-12-01T14:45:20Z</time>
      </trkpt>
      <trkpt lat="43.97159" lon="5.10841">
        <ele>353.42</ele>
        <time>2018-12-01T14:45:32Z</time>
      </trkpt>
      <trkpt lat="43.97157" lon="5.10836">
        <ele>356.31</ele>
        <time>2018-12-01T14:45:41Z</time>
      </trkpt>
      <trkpt lat="43.9714" lon="5.1082">
        <ele>356.31</ele>
        <time>2018-12-01T14:46:01Z</time>
      </trkpt>
      <trkpt lat="43.97138" lon="5.10808">
        <ele>356.79</ele>
        <time>2018-12-01T14:46:23Z</time>
      </trkpt>
      <trkpt lat="43.97131" lon="5.10797">
        <ele>356.79</ele>
        <time>2018-12-01T14:46:44Z</time>
      </trkpt>
      <trkpt lat="43.97126" lon="5.10782">
        <ele>356.79</ele>
        <time>2018-12-01T14:47:02Z</time>
      </trkpt>
      <trkpt lat="43.97123" lon="5.10772">
        <ele>351.02</ele>
        <time>2018-12-01T14:47:12Z</time>
      </trkpt>
      <trkpt lat="43.97115" lon="5.10762">
        <ele>362.07</ele>
        <time>2018-12-01T14:47:14Z</time>
      </trkpt>
      <trkpt lat="43.97111" lon="5.10759">
        <ele>357.75</ele>
        <time>2018-12-01T14:47:17Z</time>
      </trkpt>
      <trkpt lat="43.9711" lon="5.10758">
        <ele>357.75</ele>
        <time>2018-12-01T14:47:18Z</time>
      </trkpt>
      <trkpt lat="43.97101" lon="5.10743">
        <ele>358.23</ele>
        <time>2018-12-01T14:47:33Z</time>
      </trkpt>
      <trkpt lat="43.97097" lon="5.10738">
        <ele>359.67</ele>
        <time>2018-12-01T14:47:42Z</time>
      </trkpt>
      <trkpt lat="43.97095" lon="5.10725">
        <ele>359.67</ele>
        <time>2018-12-01T14:47:57Z</time>
      </trkpt>
      <trkpt lat="43.97091" lon="5.10711">
        <ele>359.67</ele>
        <time>2018-12-01T14:48:11Z</time>
      </trkpt>
      <trkpt lat="43.97088" lon="5.10707">
        <ele>360.63</ele>
        <time>2018-12-01T14:48:16Z</time>
      </trkpt>
      <trkpt lat="43.97085" lon="5.10701">
        <ele>359.67</ele>
        <time>2018-12-01T14:48:32Z</time>
      </trkpt>
      <trkpt lat="43.97083" lon="5.10698">
        <ele>359.67</ele>
        <time>2018-12-01T14:48:51Z</time>
      </trkpt>
      <trkpt lat="43.97081" lon="5.10696">
        <ele>360.63</ele>
        <time>2018-12-01T14:48:55Z</time>
      </trkpt>
      <trkpt lat="43.97071" lon="5.10677">
        <ele>360.63</ele>
        <time>2018-12-01T14:49:17Z</time>
      </trkpt>
      <trkpt lat="43.97062" lon="5.10667">
        <ele>360.15</ele>
        <time>2018-12-01T14:49:35Z</time>
      </trkpt>
      <trkpt lat="43.9705" lon="5.10658">
        <ele>362.55</ele>
        <time>2018-12-01T14:49:51Z</time>
      </trkpt>
      <trkpt lat="43.97037" lon="5.10666">
        <ele>363.52</ele>
        <time>2018-12-01T14:50:07Z</time>
      </trkpt>
      <trkpt lat="43.97023" lon="5.10664">
        <ele>363.52</ele>
        <time>2018-12-01T14:50:27Z</time>
      </trkpt>
      <trkpt lat="43.9701" lon="5.10657">
        <ele>363.52</ele>
        <time>2018-12-01T14:50:43Z</time>
      </trkpt>
      <trkpt lat="43.96993" lon="5.1065">
        <ele>364</ele>
        <time>2018-12-01T14:51:04Z</time>
      </trkpt>
      <trkpt lat="43.96972" lon="5.10642">
        <ele>364</ele>
        <time>2018-12-01T14:51:24Z</time>
      </trkpt>
      <trkpt lat="43.96956" lon="5.10638">
        <ele>364.48</ele>
        <time>2018-12-01T14:51:43Z</time>
      </trkpt>
      <trkpt lat="43.96943" lon="5.10638">
        <ele>364.96</ele>
        <time>2018-12-01T14:52:02Z</time>
      </trkpt>
      <trkpt lat="43.96933" lon="5.10631">
        <ele>361.59</ele>
        <time>2018-12-01T14:52:19Z</time>
      </trkpt>
      <trkpt lat="43.96926" lon="5.10629">
        <ele>368.8</ele>
        <time>2018-12-01T14:52:21Z</time>
      </trkpt>
      <trkpt lat="43.96922" lon="5.10629">
        <ele>367.36</ele>
        <time>2018-12-01T14:52:22Z</time>
      </trkpt>
      <trkpt lat="43.96919" lon="5.10629">
        <ele>364</ele>
        <time>2018-12-01T14:52:24Z</time>
      </trkpt>
      <trkpt lat="43.96918" lon="5.10627">
        <ele>365.44</ele>
        <time>2018-12-01T14:52:25Z</time>
      </trkpt>
      <trkpt lat="43.96916" lon="5.10627">
        <ele>365.92</ele>
        <time>2018-12-01T14:52:27Z</time>
      </trkpt>
      <trkpt lat="43.96904" lon="5.10616">
        <ele>365.44</ele>
        <time>2018-12-01T14:52:44Z</time>
      </trkpt>
      <trkpt lat="43.96893" lon="5.10604">
        <ele>365.44</ele>
        <time>2018-12-01T14:53:02Z</time>
      </trkpt>
      <trkpt lat="43.96882" lon="5.10593">
        <ele>365.44</ele>
        <time>2018-12-01T14:53:18Z</time>
      </trkpt>
      <trkpt lat="43.9688" lon="5.10591">
        <ele>367.36</ele>
        <time>2018-12-01T14:53:21Z</time>
      </trkpt>
      <trkpt lat="43.96879" lon="5.10589">
        <ele>365.92</ele>
        <time>2018-12-01T14:53:24Z</time>
      </trkpt>
      <trkpt lat="43.96868" lon="5.10578">
        <ele>366.4</ele>
        <time>2018-12-01T14:53:40Z</time>
      </trkpt>
      <trkpt lat="43.96858" lon="5.1057">
        <ele>366.4</ele>
        <time>2018-12-01T14:53:57Z</time>
      </trkpt>
      <trkpt lat="43.96858" lon="5.1057">
        <ele>365.92</ele>
        <time>2018-12-01T14:54:29Z</time>
      </trkpt>
      <trkpt lat="43.96855" lon="5.10566">
        <ele>364.96</ele>
        <time>2018-12-01T14:54:36Z</time>
      </trkpt>
      <trkpt lat="43.96842" lon="5.10564">
        <ele>365.92</ele>
        <time>2018-12-01T14:54:53Z</time>
      </trkpt>
      <trkpt lat="43.96829" lon="5.10565">
        <ele>364.96</ele>
        <time>2018-12-01T14:55:06Z</time>
      </trkpt>
      <trkpt lat="43.96827" lon="5.10561">
        <ele>366.4</ele>
        <time>2018-12-01T14:55:12Z</time>
      </trkpt>
      <trkpt lat="43.96826" lon="5.10548">
        <ele>364.96</ele>
        <time>2018-12-01T14:55:29Z</time>
      </trkpt>
      <trkpt lat="43.96826" lon="5.10546">
        <ele>364.96</ele>
        <time>2018-12-01T14:55:30Z</time>
      </trkpt>
      <trkpt lat="43.96824" lon="5.10519">
        <ele>364</ele>
        <time>2018-12-01T14:55:51Z</time>
      </trkpt>
      <trkpt lat="43.96823" lon="5.10489">
        <ele>363.52</ele>
        <time>2018-12-01T14:56:14Z</time>
      </trkpt>
      <trkpt lat="43.96822" lon="5.10476">
        <ele>362.55</ele>
        <time>2018-12-01T14:56:22Z</time>
      </trkpt>
      <trkpt lat="43.96827" lon="5.10458">
        <ele>361.59</ele>
        <time>2018-12-01T14:56:38Z</time>
      </trkpt>
      <trkpt lat="43.96833" lon="5.10439">
        <ele>358.71</ele>
        <time>2018-12-01T14:56:59Z</time>
      </trkpt>
      <trkpt lat="43.96829" lon="5.10415">
        <ele>357.27</ele>
        <time>2018-12-01T14:57:19Z</time>
      </trkpt>
      <trkpt lat="43.96832" lon="5.10407">
        <ele>355.83</ele>
        <time>2018-12-01T14:57:28Z</time>
      </trkpt>
      <trkpt lat="43.9683" lon="5.10387">
        <ele>354.38</ele>
        <time>2018-12-01T14:57:48Z</time>
      </trkpt>
      <trkpt lat="43.96827" lon="5.10376">
        <ele>353.9</ele>
        <time>2018-12-01T14:58:05Z</time>
      </trkpt>
      <trkpt lat="43.96836" lon="5.10361">
        <ele>350.54</ele>
        <time>2018-12-01T14:58:23Z</time>
      </trkpt>
      <trkpt lat="43.96836" lon="5.10344">
        <ele>349.1</ele>
        <time>2018-12-01T14:58:44Z</time>
      </trkpt>
      <trkpt lat="43.96834" lon="5.1033">
        <ele>345.73</ele>
        <time>2018-12-01T14:58:57Z</time>
      </trkpt>
      <trkpt lat="43.96837" lon="5.10318">
        <ele>343.81</ele>
        <time>2018-12-01T14:59:14Z</time>
      </trkpt>
      <trkpt lat="43.96835" lon="5.10303">
        <ele>342.37</ele>
        <time>2018-12-01T14:59:31Z</time>
      </trkpt>
      <trkpt lat="43.96839" lon="5.10287">
        <ele>339</ele>
        <time>2018-12-01T14:59:48Z</time>
      </trkpt>
      <trkpt lat="43.96841" lon="5.10268">
        <ele>338.52</ele>
        <time>2018-12-01T15:00:02Z</time>
      </trkpt>
      <trkpt lat="43.96837" lon="5.10251">
        <ele>338.04</ele>
        <time>2018-12-01T15:00:24Z</time>
      </trkpt>
      <trkpt lat="43.96844" lon="5.10241">
        <ele>336.6</ele>
        <time>2018-12-01T15:00:36Z</time>
      </trkpt>
      <trkpt lat="43.96851" lon="5.10212">
        <ele>336.12</ele>
        <time>2018-12-01T15:01:00Z</time>
      </trkpt>
      <trkpt lat="43.9685" lon="5.10191">
        <ele>335.64</ele>
        <time>2018-12-01T15:01:18Z</time>
      </trkpt>
      <trkpt lat="43.96851" lon="5.10181">
        <ele>334.68</ele>
        <time>2018-12-01T15:01:51Z</time>
      </trkpt>
      <trkpt lat="43.96861" lon="5.10165">
        <ele>334.2</ele>
        <time>2018-12-01T15:02:10Z</time>
      </trkpt>
      <trkpt lat="43.96879" lon="5.10144">
        <ele>334.68</ele>
        <time>2018-12-01T15:02:32Z</time>
      </trkpt>
      <trkpt lat="43.96884" lon="5.10137">
        <ele>333.71</ele>
        <time>2018-12-01T15:02:40Z</time>
      </trkpt>
      <trkpt lat="43.96892" lon="5.10126">
        <ele>335.64</ele>
        <time>2018-12-01T15:02:51Z</time>
      </trkpt>
      <trkpt lat="43.96905" lon="5.10109">
        <ele>334.2</ele>
        <time>2018-12-01T15:03:07Z</time>
      </trkpt>
      <trkpt lat="43.96911" lon="5.10098">
        <ele>335.16</ele>
        <time>2018-12-01T15:03:19Z</time>
      </trkpt>
      <trkpt lat="43.96916" lon="5.10094">
        <ele>336.6</ele>
        <time>2018-12-01T15:03:24Z</time>
      </trkpt>
      <trkpt lat="43.96925" lon="5.10087">
        <ele>337.08</ele>
        <time>2018-12-01T15:03:34Z</time>
      </trkpt>
      <trkpt lat="43.96942" lon="5.10069">
        <ele>336.12</ele>
        <time>2018-12-01T15:03:52Z</time>
      </trkpt>
      <trkpt lat="43.96952" lon="5.1005">
        <ele>338.04</ele>
        <time>2018-12-01T15:04:10Z</time>
      </trkpt>
      <trkpt lat="43.9696" lon="5.10032">
        <ele>339.48</ele>
        <time>2018-12-01T15:04:28Z</time>
      </trkpt>
      <trkpt lat="43.96971" lon="5.1001">
        <ele>338.04</ele>
        <time>2018-12-01T15:04:46Z</time>
      </trkpt>
      <trkpt lat="43.96972" lon="5.10007">
        <ele>339.48</ele>
        <time>2018-12-01T15:04:48Z</time>
      </trkpt>
      <trkpt lat="43.96977" lon="5.09995">
        <ele>339.96</ele>
        <time>2018-12-01T15:05:02Z</time>
      </trkpt>
      <trkpt lat="43.96978" lon="5.09982">
        <ele>339.48</ele>
        <time>2018-12-01T15:05:12Z</time>
      </trkpt>
      <trkpt lat="43.96979" lon="5.09978">
        <ele>340.92</ele>
        <time>2018-12-01T15:05:14Z</time>
      </trkpt>
      <trkpt lat="43.96986" lon="5.09958">
        <ele>338.04</ele>
        <time>2018-12-01T15:05:31Z</time>
      </trkpt>
      <trkpt lat="43.96986" lon="5.09957">
        <ele>330.35</ele>
        <time>2018-12-01T15:05:32Z</time>
      </trkpt>
      <trkpt lat="43.96986" lon="5.09955">
        <ele>338.52</ele>
        <time>2018-12-01T15:05:33Z</time>
      </trkpt>
      <trkpt lat="43.96989" lon="5.09951">
        <ele>350.54</ele>
        <time>2018-12-01T15:05:34Z</time>
      </trkpt>
      <trkpt lat="43.96991" lon="5.09949">
        <ele>343.33</ele>
        <time>2018-12-01T15:05:35Z</time>
      </trkpt>
      <trkpt lat="43.96993" lon="5.09946">
        <ele>339.96</ele>
        <time>2018-12-01T15:05:38Z</time>
      </trkpt>
      <trkpt lat="43.97003" lon="5.09928">
        <ele>340.92</ele>
        <time>2018-12-01T15:05:56Z</time>
      </trkpt>
      <trkpt lat="43.97004" lon="5.09925">
        <ele>340.92</ele>
        <time>2018-12-01T15:05:59Z</time>
      </trkpt>
      <trkpt lat="43.9701" lon="5.09911">
        <ele>342.37</ele>
        <time>2018-12-01T15:06:12Z</time>
      </trkpt>
      <trkpt lat="43.97013" lon="5.09907">
        <ele>340.92</ele>
        <time>2018-12-01T15:06:16Z</time>
      </trkpt>
      <trkpt lat="43.97021" lon="5.09892">
        <ele>340.44</ele>
        <time>2018-12-01T15:06:31Z</time>
      </trkpt>
      <trkpt lat="43.97023" lon="5.09888">
        <ele>341.89</ele>
        <time>2018-12-01T15:06:35Z</time>
      </trkpt>
      <trkpt lat="43.97026" lon="5.09883">
        <ele>340.44</ele>
        <time>2018-12-01T15:06:41Z</time>
      </trkpt>
      <trkpt lat="43.97031" lon="5.09868">
        <ele>338.52</ele>
        <time>2018-12-01T15:06:58Z</time>
      </trkpt>
      <trkpt lat="43.9703" lon="5.09867">
        <ele>339.96</ele>
        <time>2018-12-01T15:07:00Z</time>
      </trkpt>
      <trkpt lat="43.97025" lon="5.09859">
        <ele>336.6</ele>
        <time>2018-12-01T15:07:10Z</time>
      </trkpt>
      <trkpt lat="43.97024" lon="5.09847">
        <ele>336.6</ele>
        <time>2018-12-01T15:07:27Z</time>
      </trkpt>
      <trkpt lat="43.97025" lon="5.09846">
        <ele>335.64</ele>
        <time>2018-12-01T15:07:31Z</time>
      </trkpt>
      <trkpt lat="43.9704" lon="5.09833">
        <ele>332.27</ele>
        <time>2018-12-01T15:07:53Z</time>
      </trkpt>
      <trkpt lat="43.97043" lon="5.09829">
        <ele>331.79</ele>
        <time>2018-12-01T15:07:58Z</time>
      </trkpt>
      <trkpt lat="43.97049" lon="5.09817">
        <ele>329.39</ele>
        <time>2018-12-01T15:08:19Z</time>
      </trkpt>
      <trkpt lat="43.97052" lon="5.09796">
        <ele>326.99</ele>
        <time>2018-12-01T15:08:38Z</time>
      </trkpt>
      <trkpt lat="43.97058" lon="5.0977">
        <ele>325.06</ele>
        <time>2018-12-01T15:09:00Z</time>
      </trkpt>
      <trkpt lat="43.97065" lon="5.0977">
        <ele>325.54</ele>
        <time>2018-12-01T15:09:25Z</time>
      </trkpt>
      <trkpt lat="43.97066" lon="5.09762">
        <ele>325.06</ele>
        <time>2018-12-01T15:09:32Z</time>
      </trkpt>
      <trkpt lat="43.97072" lon="5.09736">
        <ele>324.58</ele>
        <time>2018-12-01T15:09:52Z</time>
      </trkpt>
      <trkpt lat="43.97076" lon="5.0972">
        <ele>325.06</ele>
        <time>2018-12-01T15:10:06Z</time>
      </trkpt>
      <trkpt lat="43.97083" lon="5.09702">
        <ele>323.62</ele>
        <time>2018-12-01T15:10:25Z</time>
      </trkpt>
      <trkpt lat="43.97088" lon="5.0969">
        <ele>323.14</ele>
        <time>2018-12-01T15:10:41Z</time>
      </trkpt>
      <trkpt lat="43.97099" lon="5.09679">
        <ele>322.18</ele>
        <time>2018-12-01T15:10:59Z</time>
      </trkpt>
      <trkpt lat="43.971" lon="5.09678">
        <ele>322.18</ele>
        <time>2018-12-01T15:11:00Z</time>
      </trkpt>
      <trkpt lat="43.97122" lon="5.09662">
        <ele>321.22</ele>
        <time>2018-12-01T15:11:22Z</time>
      </trkpt>
      <trkpt lat="43.97137" lon="5.09648">
        <ele>320.74</ele>
        <time>2018-12-01T15:11:39Z</time>
      </trkpt>
      <trkpt lat="43.97151" lon="5.09632">
        <ele>320.74</ele>
        <time>2018-12-01T15:12:00Z</time>
      </trkpt>
      <trkpt lat="43.97166" lon="5.09616">
        <ele>321.22</ele>
        <time>2018-12-01T15:12:20Z</time>
      </trkpt>
      <trkpt lat="43.97171" lon="5.09606">
        <ele>319.78</ele>
        <time>2018-12-01T15:12:29Z</time>
      </trkpt>
      <trkpt lat="43.97177" lon="5.09599">
        <ele>318.81</ele>
        <time>2018-12-01T15:12:38Z</time>
      </trkpt>
      <trkpt lat="43.97183" lon="5.09577">
        <ele>317.37</ele>
        <time>2018-12-01T15:12:55Z</time>
      </trkpt>
      <trkpt lat="43.97189" lon="5.09563">
        <ele>315.45</ele>
        <time>2018-12-01T15:13:09Z</time>
      </trkpt>
      <trkpt lat="43.97198" lon="5.09546">
        <ele>314.97</ele>
        <time>2018-12-01T15:13:28Z</time>
      </trkpt>
      <trkpt lat="43.97202" lon="5.09533">
        <ele>314.01</ele>
        <time>2018-12-01T15:13:39Z</time>
      </trkpt>
      <trkpt lat="43.97209" lon="5.09515">
        <ele>312.57</ele>
        <time>2018-12-01T15:13:56Z</time>
      </trkpt>
      <trkpt lat="43.97217" lon="5.09504">
        <ele>311.12</ele>
        <time>2018-12-01T15:14:09Z</time>
      </trkpt>
      <trkpt lat="43.97225" lon="5.09483">
        <ele>307.76</ele>
        <time>2018-12-01T15:14:29Z</time>
      </trkpt>
      <trkpt lat="43.97232" lon="5.09471">
        <ele>305.36</ele>
        <time>2018-12-01T15:14:43Z</time>
      </trkpt>
      <trkpt lat="43.97238" lon="5.09466">
        <ele>306.32</ele>
        <time>2018-12-01T15:14:57Z</time>
      </trkpt>
      <trkpt lat="43.97238" lon="5.09463">
        <ele>306.32</ele>
        <time>2018-12-01T15:15:16Z</time>
      </trkpt>
      <trkpt lat="43.97239" lon="5.09462">
        <ele>304.88</ele>
        <time>2018-12-01T15:15:20Z</time>
      </trkpt>
      <trkpt lat="43.9724" lon="5.0946">
        <ele>307.28</ele>
        <time>2018-12-01T15:15:22Z</time>
      </trkpt>
      <trkpt lat="43.97241" lon="5.09458">
        <ele>305.36</ele>
        <time>2018-12-01T15:15:24Z</time>
      </trkpt>
      <trkpt lat="43.97243" lon="5.09454">
        <ele>303.43</ele>
        <time>2018-12-01T15:15:28Z</time>
      </trkpt>
      <trkpt lat="43.97244" lon="5.09453">
        <ele>306.32</ele>
        <time>2018-12-01T15:15:29Z</time>
      </trkpt>
      <trkpt lat="43.97253" lon="5.09439">
        <ele>302.47</ele>
        <time>2018-12-01T15:15:45Z</time>
      </trkpt>
      <trkpt lat="43.97254" lon="5.09435">
        <ele>302.47</ele>
        <time>2018-12-01T15:15:48Z</time>
      </trkpt>
      <trkpt lat="43.97261" lon="5.09411">
        <ele>300.07</ele>
        <time>2018-12-01T15:16:05Z</time>
      </trkpt>
      <trkpt lat="43.97266" lon="5.09388">
        <ele>298.15</ele>
        <time>2018-12-01T15:16:20Z</time>
      </trkpt>
      <trkpt lat="43.9727" lon="5.0937">
        <ele>296.7</ele>
        <time>2018-12-01T15:16:36Z</time>
      </trkpt>
      <trkpt lat="43.97278" lon="5.09353">
        <ele>295.74</ele>
        <time>2018-12-01T15:17:06Z</time>
      </trkpt>
      <trkpt lat="43.97284" lon="5.09349">
        <ele>298.15</ele>
        <time>2018-12-01T15:17:22Z</time>
      </trkpt>
      <trkpt lat="43.97284" lon="5.09349">
        <ele>296.7</ele>
        <time>2018-12-01T15:17:23Z</time>
      </trkpt>
      <trkpt lat="43.97278" lon="5.09344">
        <ele>295.74</ele>
        <time>2018-12-01T15:17:35Z</time>
      </trkpt>
    </trkseg>
  </trk>
</gpx>